sensor_id;sensor_type;location;lat;lon;timestamp;P1;durP1;ratioP1;P2;durP2;ratioP2
56429;SDS011;42332;52.136;20.666;2022-07-29T00:00:07;14.43;;;4.35;;
56429;SDS011;42332;52.136;20.666;2022-07-29T00:02:34;16.15;;;5.28;;
56429;SDS011;42332;52.136;20.666;2022-07-29T00:04:59;10.13;;;3.95;;
56429;SDS011;42332;52.136;20.666;2022-07-29T00:07:25;13.73;;;4.80;;
56429;SDS011;42332;52.136;20.666;2022-07-29T00:09:50;8.88;;;3.70;;
56429;SDS011;42332;52.136;20.666;2022-07-29T00:12:16;11.07;;;4.15;;
56429;SDS011;42332;52.136;20.666;2022-07-29T00:14:42;12.05;;;4.70;;
56429;SDS011;42332;52.136;20.666;2022-07-29T00:17:07;8.98;;;4.10;;
56429;SDS011;42332;52.136;20.666;2022-07-29T00:19:32;10.23;;;3.70;;
56429;SDS011;42332;52.136;20.666;2022-07-29T00:21:59;11.20;;;3.92;;
56429;SDS011;42332;52.136;20.666;2022-07-29T00:24:24;9.38;;;4.45;;
56429;SDS011;42332;52.136;20.666;2022-07-29T00:26:50;8.93;;;3.58;;
56429;SDS011;42332;52.136;20.666;2022-07-29T00:29:15;10.70;;;3.70;;
56429;SDS011;42332;52.136;20.666;2022-07-29T00:31:41;12.18;;;4.72;;
56429;SDS011;42332;52.136;20.666;2022-07-29T00:34:06;9.85;;;4.15;;
56429;SDS011;42332;52.136;20.666;2022-07-29T00:36:51;10.15;;;4.18;;
56429;SDS011;42332;52.136;20.666;2022-07-29T00:39:17;12.10;;;4.22;;
56429;SDS011;42332;52.136;20.666;2022-07-29T00:41:42;9.98;;;3.58;;
56429;SDS011;42332;52.136;20.666;2022-07-29T00:44:08;15.32;;;3.92;;
56429;SDS011;42332;52.136;20.666;2022-07-29T00:46:33;9.55;;;4.15;;
56429;SDS011;42332;52.136;20.666;2022-07-29T00:48:58;9.63;;;4.28;;
56429;SDS011;42332;52.136;20.666;2022-07-29T00:51:25;8.88;;;4.25;;
56429;SDS011;42332;52.136;20.666;2022-07-29T00:53:50;7.78;;;3.35;;
56429;SDS011;42332;52.136;20.666;2022-07-29T00:56:16;14.18;;;3.97;;
56429;SDS011;42332;52.136;20.666;2022-07-29T00:58:41;7.90;;;3.78;;
56429;SDS011;42332;52.136;20.666;2022-07-29T01:01:07;11.93;;;4.00;;
56429;SDS011;42332;52.136;20.666;2022-07-29T01:03:32;9.43;;;3.85;;
56429;SDS011;42332;52.136;20.666;2022-07-29T01:05:57;11.95;;;4.13;;
56429;SDS011;42332;52.136;20.666;2022-07-29T01:08:23;8.07;;;3.75;;
56429;SDS011;42332;52.136;20.666;2022-07-29T01:10:49;11.63;;;4.05;;
56429;SDS011;42332;52.136;20.666;2022-07-29T01:13:15;8.38;;;3.92;;
56429;SDS011;42332;52.136;20.666;2022-07-29T01:15:44;6.60;;;3.42;;
56429;SDS011;42332;52.136;20.666;2022-07-29T01:18:31;10.13;;;3.67;;
56429;SDS011;42332;52.136;20.666;2022-07-29T01:21:07;8.15;;;3.72;;
56429;SDS011;42332;52.136;20.666;2022-07-29T01:23:48;9.02;;;3.90;;
56429;SDS011;42332;52.136;20.666;2022-07-29T01:29:17;12.68;;;4.35;;
56429;SDS011;42332;52.136;20.666;2022-07-29T01:31:48;10.90;;;3.60;;
56429;SDS011;42332;52.136;20.666;2022-07-29T01:34:21;10.95;;;4.35;;
56429;SDS011;42332;52.136;20.666;2022-07-29T01:36:48;11.82;;;4.20;;
56429;SDS011;42332;52.136;20.666;2022-07-29T01:39:18;9.27;;;3.92;;
56429;SDS011;42332;52.136;20.666;2022-07-29T01:41:49;10.85;;;4.28;;
56429;SDS011;42332;52.136;20.666;2022-07-29T01:44:23;11.20;;;3.90;;
56429;SDS011;42332;52.136;20.666;2022-07-29T01:46:54;10.07;;;4.10;;
56429;SDS011;42332;52.136;20.666;2022-07-29T01:49:22;7.80;;;3.75;;
56429;SDS011;42332;52.136;20.666;2022-07-29T01:51:54;9.43;;;3.85;;
56429;SDS011;42332;52.136;20.666;2022-07-29T01:54:34;9.48;;;4.45;;
56429;SDS011;42332;52.136;20.666;2022-07-29T01:57:00;9.70;;;4.03;;
56429;SDS011;42332;52.136;20.666;2022-07-29T01:59:26;10.50;;;3.65;;
56429;SDS011;42332;52.136;20.666;2022-07-29T02:01:54;8.43;;;3.33;;
56429;SDS011;42332;52.136;20.666;2022-07-29T02:04:20;8.85;;;3.97;;
56429;SDS011;42332;52.136;20.666;2022-07-29T02:06:45;10.32;;;4.10;;
56429;SDS011;42332;52.136;20.666;2022-07-29T02:09:13;8.05;;;3.78;;
56429;SDS011;42332;52.136;20.666;2022-07-29T02:11:39;8.45;;;3.95;;
56429;SDS011;42332;52.136;20.666;2022-07-29T02:14:05;8.50;;;4.65;;
56429;SDS011;42332;52.136;20.666;2022-07-29T02:16:32;10.60;;;4.38;;
56429;SDS011;42332;52.136;20.666;2022-07-29T02:18:58;8.15;;;4.00;;
56429;SDS011;42332;52.136;20.666;2022-07-29T02:21:26;12.52;;;4.28;;
56429;SDS011;42332;52.136;20.666;2022-07-29T02:23:53;11.52;;;4.40;;
56429;SDS011;42332;52.136;20.666;2022-07-29T02:26:20;9.20;;;4.35;;
56429;SDS011;42332;52.136;20.666;2022-07-29T02:28:46;8.73;;;4.10;;
56429;SDS011;42332;52.136;20.666;2022-07-29T02:31:12;8.18;;;4.03;;
56429;SDS011;42332;52.136;20.666;2022-07-29T02:33:38;12.50;;;4.15;;
56429;SDS011;42332;52.136;20.666;2022-07-29T02:36:05;12.82;;;4.25;;
56429;SDS011;42332;52.136;20.666;2022-07-29T02:38:31;12.73;;;4.13;;
56429;SDS011;42332;52.136;20.666;2022-07-29T02:41:16;9.23;;;3.95;;
56429;SDS011;42332;52.136;20.666;2022-07-29T02:43:44;8.32;;;4.03;;
56429;SDS011;42332;52.136;20.666;2022-07-29T02:46:13;10.05;;;4.28;;
56429;SDS011;42332;52.136;20.666;2022-07-29T02:48:43;9.15;;;4.60;;
56429;SDS011;42332;52.136;20.666;2022-07-29T02:51:17;7.75;;;4.00;;
56429;SDS011;42332;52.136;20.666;2022-07-29T02:53:46;10.25;;;4.45;;
56429;SDS011;42332;52.136;20.666;2022-07-29T02:56:14;8.10;;;4.45;;
56429;SDS011;42332;52.136;20.666;2022-07-29T02:58:45;9.85;;;4.40;;
56429;SDS011;42332;52.136;20.666;2022-07-29T03:01:22;11.25;;;4.53;;
56429;SDS011;42332;52.136;20.666;2022-07-29T03:03:50;8.60;;;4.72;;
56429;SDS011;42332;52.136;20.666;2022-07-29T03:06:17;13.25;;;4.40;;
56429;SDS011;42332;52.136;20.666;2022-07-29T03:08:43;10.27;;;4.07;;
56429;SDS011;42332;52.136;20.666;2022-07-29T03:11:09;11.70;;;4.63;;
56429;SDS011;42332;52.136;20.666;2022-07-29T03:13:35;9.50;;;4.18;;
56429;SDS011;42332;52.136;20.666;2022-07-29T03:16:01;9.55;;;4.88;;
56429;SDS011;42332;52.136;20.666;2022-07-29T03:18:27;8.50;;;4.43;;
56429;SDS011;42332;52.136;20.666;2022-07-29T03:20:53;12.57;;;4.45;;
56429;SDS011;42332;52.136;20.666;2022-07-29T03:23:19;9.57;;;4.40;;
56429;SDS011;42332;52.136;20.666;2022-07-29T03:25:45;8.27;;;3.90;;
56429;SDS011;42332;52.136;20.666;2022-07-29T03:28:11;10.73;;;4.40;;
56429;SDS011;42332;52.136;20.666;2022-07-29T03:30:36;7.07;;;3.72;;
56429;SDS011;42332;52.136;20.666;2022-07-29T03:33:02;9.73;;;4.20;;
56429;SDS011;42332;52.136;20.666;2022-07-29T03:35:27;11.35;;;4.13;;
56429;SDS011;42332;52.136;20.666;2022-07-29T03:37:53;11.02;;;4.10;;
56429;SDS011;42332;52.136;20.666;2022-07-29T03:40:30;10.68;;;4.55;;
56429;SDS011;42332;52.136;20.666;2022-07-29T03:42:57;7.13;;;4.22;;
56429;SDS011;42332;52.136;20.666;2022-07-29T03:45:24;10.68;;;4.90;;
56429;SDS011;42332;52.136;20.666;2022-07-29T03:47:52;13.90;;;4.80;;
56429;SDS011;42332;52.136;20.666;2022-07-29T03:50:19;11.88;;;4.85;;
56429;SDS011;42332;52.136;20.666;2022-07-29T03:52:45;8.43;;;3.83;;
56429;SDS011;42332;52.136;20.666;2022-07-29T03:55:11;11.40;;;4.38;;
56429;SDS011;42332;52.136;20.666;2022-07-29T03:57:37;8.15;;;4.00;;
56429;SDS011;42332;52.136;20.666;2022-07-29T04:00:03;10.25;;;5.10;;
56429;SDS011;42332;52.136;20.666;2022-07-29T04:02:30;12.35;;;3.90;;
56429;SDS011;42332;52.136;20.666;2022-07-29T04:04:56;10.75;;;4.22;;
56429;SDS011;42332;52.136;20.666;2022-07-29T04:07:22;12.43;;;3.85;;
56429;SDS011;42332;52.136;20.666;2022-07-29T04:09:47;7.40;;;3.50;;
56429;SDS011;42332;52.136;20.666;2022-07-29T04:12:13;8.77;;;3.67;;
56429;SDS011;42332;52.136;20.666;2022-07-29T04:14:38;11.02;;;3.90;;
56429;SDS011;42332;52.136;20.666;2022-07-29T04:17:04;7.32;;;3.78;;
56429;SDS011;42332;52.136;20.666;2022-07-29T04:19:30;6.72;;;3.45;;
56429;SDS011;42332;52.136;20.666;2022-07-29T04:21:55;11.85;;;4.10;;
56429;SDS011;42332;52.136;20.666;2022-07-29T04:24:21;7.53;;;3.83;;
56429;SDS011;42332;52.136;20.666;2022-07-29T04:26:46;11.93;;;4.03;;
56429;SDS011;42332;52.136;20.666;2022-07-29T04:29:12;8.63;;;3.20;;
56429;SDS011;42332;52.136;20.666;2022-07-29T04:31:39;6.53;;;3.15;;
56429;SDS011;42332;52.136;20.666;2022-07-29T04:34:05;8.15;;;3.63;;
56429;SDS011;42332;52.136;20.666;2022-07-29T04:36:30;6.45;;;3.10;;
56429;SDS011;42332;52.136;20.666;2022-07-29T04:38:55;8.88;;;2.90;;
56429;SDS011;42332;52.136;20.666;2022-07-29T04:41:21;6.93;;;3.25;;
56429;SDS011;42332;52.136;20.666;2022-07-29T04:43:46;8.55;;;3.08;;
56429;SDS011;42332;52.136;20.666;2022-07-29T04:46:11;15.38;;;2.70;;
56429;SDS011;42332;52.136;20.666;2022-07-29T04:48:37;15.70;;;2.90;;
56429;SDS011;42332;52.136;20.666;2022-07-29T04:51:02;7.80;;;3.00;;
56429;SDS011;42332;52.136;20.666;2022-07-29T04:53:28;6.13;;;2.72;;
56429;SDS011;42332;52.136;20.666;2022-07-29T04:55:53;7.80;;;2.72;;
56429;SDS011;42332;52.136;20.666;2022-07-29T04:58:18;6.30;;;2.63;;
56429;SDS011;42332;52.136;20.666;2022-07-29T05:00:44;6.45;;;3.00;;
56429;SDS011;42332;52.136;20.666;2022-07-29T05:03:09;8.00;;;2.50;;
56429;SDS011;42332;52.136;20.666;2022-07-29T05:05:35;7.32;;;2.50;;
56429;SDS011;42332;52.136;20.666;2022-07-29T05:08:00;7.10;;;2.65;;
56429;SDS011;42332;52.136;20.666;2022-07-29T05:10:25;5.57;;;2.33;;
56429;SDS011;42332;52.136;20.666;2022-07-29T05:12:51;5.93;;;2.10;;
56429;SDS011;42332;52.136;20.666;2022-07-29T05:15:16;8.90;;;2.55;;
56429;SDS011;42332;52.136;20.666;2022-07-29T05:17:42;6.00;;;1.67;;
56429;SDS011;42332;52.136;20.666;2022-07-29T05:20:08;5.25;;;1.98;;
56429;SDS011;42332;52.136;20.666;2022-07-29T05:22:34;5.70;;;1.77;;
56429;SDS011;42332;52.136;20.666;2022-07-29T05:24:59;4.55;;;1.90;;
56429;SDS011;42332;52.136;20.666;2022-07-29T05:27:24;3.67;;;1.50;;
56429;SDS011;42332;52.136;20.666;2022-07-29T05:29:50;5.88;;;1.60;;
56429;SDS011;42332;52.136;20.666;2022-07-29T05:32:16;6.20;;;1.63;;
56429;SDS011;42332;52.136;20.666;2022-07-29T05:34:41;5.03;;;1.50;;
56429;SDS011;42332;52.136;20.666;2022-07-29T05:37:06;4.50;;;1.70;;
56429;SDS011;42332;52.136;20.666;2022-07-29T05:39:32;4.75;;;1.70;;
56429;SDS011;42332;52.136;20.666;2022-07-29T05:41:57;4.55;;;1.83;;
56429;SDS011;42332;52.136;20.666;2022-07-29T05:44:23;6.43;;;1.70;;
56429;SDS011;42332;52.136;20.666;2022-07-29T05:46:48;4.40;;;1.67;;
56429;SDS011;42332;52.136;20.666;2022-07-29T05:49:13;10.80;;;1.80;;
56429;SDS011;42332;52.136;20.666;2022-07-29T05:51:39;5.80;;;1.60;;
56429;SDS011;42332;52.136;20.666;2022-07-29T05:54:05;5.88;;;1.52;;
56429;SDS011;42332;52.136;20.666;2022-07-29T05:56:30;7.32;;;1.80;;
56429;SDS011;42332;52.136;20.666;2022-07-29T05:58:56;4.93;;;1.70;;
56429;SDS011;42332;52.136;20.666;2022-07-29T06:01:21;6.65;;;1.60;;
56429;SDS011;42332;52.136;20.666;2022-07-29T06:03:46;4.93;;;1.35;;
56429;SDS011;42332;52.136;20.666;2022-07-29T06:06:12;7.97;;;1.60;;
56429;SDS011;42332;52.136;20.666;2022-07-29T06:08:37;2.83;;;1.20;;
56429;SDS011;42332;52.136;20.666;2022-07-29T06:11:03;5.13;;;1.23;;
56429;SDS011;42332;52.136;20.666;2022-07-29T06:13:29;6.13;;;1.30;;
56429;SDS011;42332;52.136;20.666;2022-07-29T06:15:55;5.93;;;1.42;;
56429;SDS011;42332;52.136;20.666;2022-07-29T06:18:20;7.10;;;1.50;;
56429;SDS011;42332;52.136;20.666;2022-07-29T06:20:48;4.63;;;1.20;;
56429;SDS011;42332;52.136;20.666;2022-07-29T06:23:17;6.05;;;1.23;;
56429;SDS011;42332;52.136;20.666;2022-07-29T06:25:43;5.57;;;1.42;;
56429;SDS011;42332;52.136;20.666;2022-07-29T06:28:08;3.30;;;1.15;;
56429;SDS011;42332;52.136;20.666;2022-07-29T06:30:33;2.55;;;1.00;;
56429;SDS011;42332;52.136;20.666;2022-07-29T06:32:59;8.75;;;1.98;;
56429;SDS011;42332;52.136;20.666;2022-07-29T06:35:26;3.35;;;1.20;;
56429;SDS011;42332;52.136;20.666;2022-07-29T06:37:51;5.05;;;1.30;;
56429;SDS011;42332;52.136;20.666;2022-07-29T06:40:17;3.50;;;1.00;;
56429;SDS011;42332;52.136;20.666;2022-07-29T06:43:00;7.35;;;1.52;;
56429;SDS011;42332;52.136;20.666;2022-07-29T06:45:26;3.55;;;1.30;;
56429;SDS011;42332;52.136;20.666;2022-07-29T06:47:51;5.75;;;1.20;;
56429;SDS011;42332;52.136;20.666;2022-07-29T06:50:17;4.18;;;1.58;;
56429;SDS011;42332;52.136;20.666;2022-07-29T06:52:42;6.30;;;1.20;;
56429;SDS011;42332;52.136;20.666;2022-07-29T06:55:08;3.80;;;1.10;;
56429;SDS011;42332;52.136;20.666;2022-07-29T06:57:33;4.80;;;1.20;;
56429;SDS011;42332;52.136;20.666;2022-07-29T06:59:59;6.75;;;1.30;;
56429;SDS011;42332;52.136;20.666;2022-07-29T07:02:24;4.70;;;1.10;;
56429;SDS011;42332;52.136;20.666;2022-07-29T07:04:50;3.08;;;1.10;;
56429;SDS011;42332;52.136;20.666;2022-07-29T07:07:15;5.15;;;1.45;;
56429;SDS011;42332;52.136;20.666;2022-07-29T07:09:40;3.20;;;1.20;;
56429;SDS011;42332;52.136;20.666;2022-07-29T07:12:06;3.55;;;1.10;;
56429;SDS011;42332;52.136;20.666;2022-07-29T07:14:31;6.07;;;1.17;;
56429;SDS011;42332;52.136;20.666;2022-07-29T07:16:57;3.65;;;1.20;;
56429;SDS011;42332;52.136;20.666;2022-07-29T07:19:25;3.35;;;1.25;;
56429;SDS011;42332;52.136;20.666;2022-07-29T07:21:50;3.63;;;1.25;;
56429;SDS011;42332;52.136;20.666;2022-07-29T07:24:15;7.55;;;1.40;;
56429;SDS011;42332;52.136;20.666;2022-07-29T07:26:41;3.25;;;1.15;;
56429;SDS011;42332;52.136;20.666;2022-07-29T07:29:06;5.53;;;1.20;;
56429;SDS011;42332;52.136;20.666;2022-07-29T07:31:31;6.32;;;1.10;;
56429;SDS011;42332;52.136;20.666;2022-07-29T07:33:57;3.15;;;1.00;;
56429;SDS011;42332;52.136;20.666;2022-07-29T07:36:23;5.20;;;1.20;;
56429;SDS011;42332;52.136;20.666;2022-07-29T07:38:49;4.18;;;1.30;;
56429;SDS011;42332;52.136;20.666;2022-07-29T07:41:15;4.03;;;1.10;;
56429;SDS011;42332;52.136;20.666;2022-07-29T07:43:40;3.92;;;1.05;;
56429;SDS011;42332;52.136;20.666;2022-07-29T07:46:05;4.32;;;1.20;;
56429;SDS011;42332;52.136;20.666;2022-07-29T07:48:31;7.25;;;1.50;;
56429;SDS011;42332;52.136;20.666;2022-07-29T07:50:56;4.70;;;1.30;;
56429;SDS011;42332;52.136;20.666;2022-07-29T07:53:23;5.18;;;1.20;;
56429;SDS011;42332;52.136;20.666;2022-07-29T07:55:49;7.70;;;1.23;;
56429;SDS011;42332;52.136;20.666;2022-07-29T07:58:14;5.05;;;1.13;;
56429;SDS011;42332;52.136;20.666;2022-07-29T08:00:39;7.15;;;1.40;;
56429;SDS011;42332;52.136;20.666;2022-07-29T08:03:05;4.47;;;1.23;;
56429;SDS011;42332;52.136;20.666;2022-07-29T08:05:30;6.18;;;1.33;;
56429;SDS011;42332;52.136;20.666;2022-07-29T08:07:55;3.90;;;1.13;;
56429;SDS011;42332;52.136;20.666;2022-07-29T08:10:21;5.97;;;1.27;;
56429;SDS011;42332;52.136;20.666;2022-07-29T08:13:06;7.05;;;1.45;;
56429;SDS011;42332;52.136;20.666;2022-07-29T08:15:32;4.88;;;1.17;;
56429;SDS011;42332;52.136;20.666;2022-07-29T08:17:57;6.32;;;1.23;;
56429;SDS011;42332;52.136;20.666;2022-07-29T08:20:23;4.28;;;1.23;;
56429;SDS011;42332;52.136;20.666;2022-07-29T08:22:49;7.22;;;1.38;;
56429;SDS011;42332;52.136;20.666;2022-07-29T08:25:14;3.35;;;1.10;;
56429;SDS011;42332;52.136;20.666;2022-07-29T08:27:40;3.10;;;1.00;;
56429;SDS011;42332;52.136;20.666;2022-07-29T08:30:05;6.45;;;1.00;;
56429;SDS011;42332;52.136;20.666;2022-07-29T08:32:31;4.72;;;1.27;;
56429;SDS011;42332;52.136;20.666;2022-07-29T08:34:57;3.97;;;1.02;;
56429;SDS011;42332;52.136;20.666;2022-07-29T08:37:22;4.18;;;0.90;;
56429;SDS011;42332;52.136;20.666;2022-07-29T08:39:47;3.90;;;1.10;;
56429;SDS011;42332;52.136;20.666;2022-07-29T08:42:13;5.38;;;1.10;;
56429;SDS011;42332;52.136;20.666;2022-07-29T08:44:38;3.65;;;1.10;;
56429;SDS011;42332;52.136;20.666;2022-07-29T08:47:04;5.75;;;1.48;;
56429;SDS011;42332;52.136;20.666;2022-07-29T08:49:30;5.13;;;1.00;;
56429;SDS011;42332;52.136;20.666;2022-07-29T08:51:57;5.63;;;1.35;;
56429;SDS011;42332;52.136;20.666;2022-07-29T08:54:23;5.45;;;0.90;;
56429;SDS011;42332;52.136;20.666;2022-07-29T08:56:49;4.90;;;1.08;;
56429;SDS011;42332;52.136;20.666;2022-07-29T08:59:15;7.03;;;1.95;;
56429;SDS011;42332;52.136;20.666;2022-07-29T09:01:41;1.50;;;0.80;;
56429;SDS011;42332;52.136;20.666;2022-07-29T09:04:09;5.47;;;1.40;;
56429;SDS011;42332;52.136;20.666;2022-07-29T09:06:36;6.47;;;1.23;;
56429;SDS011;42332;52.136;20.666;2022-07-29T09:09:02;4.25;;;1.45;;
56429;SDS011;42332;52.136;20.666;2022-07-29T09:11:29;2.13;;;0.80;;
56429;SDS011;42332;52.136;20.666;2022-07-29T09:13:54;9.25;;;1.23;;
56429;SDS011;42332;52.136;20.666;2022-07-29T09:16:19;5.57;;;1.20;;
56429;SDS011;42332;52.136;20.666;2022-07-29T09:18:45;4.40;;;1.10;;
56429;SDS011;42332;52.136;20.666;2022-07-29T09:21:12;8.07;;;1.15;;
56429;SDS011;42332;52.136;20.666;2022-07-29T09:26:29;3.25;;;0.90;;
56429;SDS011;42332;52.136;20.666;2022-07-29T09:28:55;5.22;;;1.00;;
56429;SDS011;42332;52.136;20.666;2022-07-29T09:31:27;5.97;;;0.90;;
56429;SDS011;42332;52.136;20.666;2022-07-29T09:33:58;4.35;;;0.85;;
56429;SDS011;42332;52.136;20.666;2022-07-29T09:36:25;4.00;;;0.98;;
56429;SDS011;42332;52.136;20.666;2022-07-29T09:38:57;4.22;;;0.98;;
56429;SDS011;42332;52.136;20.666;2022-07-29T09:41:24;5.97;;;1.00;;
56429;SDS011;42332;52.136;20.666;2022-07-29T09:43:53;6.15;;;1.20;;
56429;SDS011;42332;52.136;20.666;2022-07-29T09:46:23;8.70;;;1.23;;
56429;SDS011;42332;52.136;20.666;2022-07-29T09:49:08;2.92;;;0.85;;
56429;SDS011;42332;52.136;20.666;2022-07-29T09:51:38;3.60;;;1.02;;
56429;SDS011;42332;52.136;20.666;2022-07-29T09:54:22;6.15;;;0.90;;
56429;SDS011;42332;52.136;20.666;2022-07-29T09:56:51;4.80;;;0.75;;
56429;SDS011;42332;52.136;20.666;2022-07-29T09:59:17;3.72;;;1.00;;
56429;SDS011;42332;52.136;20.666;2022-07-29T10:01:43;1.48;;;0.80;;
56429;SDS011;42332;52.136;20.666;2022-07-29T10:04:08;3.92;;;1.17;;
56429;SDS011;42332;52.136;20.666;2022-07-29T10:06:34;3.08;;;1.15;;
56429;SDS011;42332;52.136;20.666;2022-07-29T10:09:09;1.73;;;0.85;;
56429;SDS011;42332;52.136;20.666;2022-07-29T10:11:35;2.35;;;0.82;;
56429;SDS011;42332;52.136;20.666;2022-07-29T10:14:01;2.38;;;0.80;;
56429;SDS011;42332;52.136;20.666;2022-07-29T10:16:28;6.25;;;1.10;;
56429;SDS011;42332;52.136;20.666;2022-07-29T10:18:57;2.55;;;0.90;;
56429;SDS011;42332;52.136;20.666;2022-07-29T10:21:24;1.90;;;0.70;;
56429;SDS011;42332;52.136;20.666;2022-07-29T10:23:50;1.95;;;0.70;;
56429;SDS011;42332;52.136;20.666;2022-07-29T10:26:16;4.90;;;1.10;;
56429;SDS011;42332;52.136;20.666;2022-07-29T10:28:42;4.07;;;1.02;;
56429;SDS011;42332;52.136;20.666;2022-07-29T10:31:08;5.28;;;0.90;;
56429;SDS011;42332;52.136;20.666;2022-07-29T10:41:47;4.53;;;0.90;;
56429;SDS011;42332;52.136;20.666;2022-07-29T10:44:24;3.65;;;0.90;;
56429;SDS011;42332;52.136;20.666;2022-07-29T10:46:51;3.35;;;0.88;;
56429;SDS011;42332;52.136;20.666;2022-07-29T11:00:25;7.18;;;1.00;;
56429;SDS011;42332;52.136;20.666;2022-07-29T11:05:08;4.18;;;1.02;;
56429;SDS011;42332;52.136;20.666;2022-07-29T11:07:37;4.65;;;1.00;;
56429;SDS011;42332;52.136;20.666;2022-07-29T11:15:16;3.60;;;0.93;;
56429;SDS011;42332;52.136;20.666;2022-07-29T11:20:30;7.07;;;0.90;;
56429;SDS011;42332;52.136;20.666;2022-07-29T11:28:34;3.03;;;0.90;;
56429;SDS011;42332;52.136;20.666;2022-07-29T11:31:07;4.05;;;1.20;;
56429;SDS011;42332;52.136;20.666;2022-07-29T11:33:34;5.90;;;0.98;;
56429;SDS011;42332;52.136;20.666;2022-07-29T11:36:12;5.57;;;1.00;;
56429;SDS011;42332;52.136;20.666;2022-07-29T11:38:39;7.63;;;1.13;;
56429;SDS011;42332;52.136;20.666;2022-07-29T11:43:48;3.42;;;0.90;;
56429;SDS011;42332;52.136;20.666;2022-07-29T11:49:23;4.80;;;0.90;;
56429;SDS011;42332;52.136;20.666;2022-07-29T11:51:54;8.52;;;1.00;;
56429;SDS011;42332;52.136;20.666;2022-07-29T11:54:24;2.47;;;0.70;;
56429;SDS011;42332;52.136;20.666;2022-07-29T11:56:51;6.53;;;1.33;;
56429;SDS011;42332;52.136;20.666;2022-07-29T11:59:17;3.17;;;0.73;;
56429;SDS011;42332;52.136;20.666;2022-07-29T12:04:22;4.50;;;1.00;;
56429;SDS011;42332;52.136;20.666;2022-07-29T12:06:51;6.45;;;1.08;;
56429;SDS011;42332;52.136;20.666;2022-07-29T12:09:21;5.15;;;0.90;;
56429;SDS011;42332;52.136;20.666;2022-07-29T12:11:47;5.70;;;0.90;;
56429;SDS011;42332;52.136;20.666;2022-07-29T12:17:31;13.75;;;1.75;;
56429;SDS011;42332;52.136;20.666;2022-07-29T12:19:59;6.38;;;0.90;;
56429;SDS011;42332;52.136;20.666;2022-07-29T12:22:26;6.53;;;0.93;;
56429;SDS011;42332;52.136;20.666;2022-07-29T12:24:53;8.40;;;1.25;;
56429;SDS011;42332;52.136;20.666;2022-07-29T12:27:19;3.50;;;1.10;;
56429;SDS011;42332;52.136;20.666;2022-07-29T12:29:54;3.60;;;1.33;;
56429;SDS011;42332;52.136;20.666;2022-07-29T12:32:20;2.88;;;1.10;;
56429;SDS011;42332;52.136;20.666;2022-07-29T12:34:45;3.20;;;0.93;;
56429;SDS011;42332;52.136;20.666;2022-07-29T12:37:11;3.88;;;0.90;;
56429;SDS011;42332;52.136;20.666;2022-07-29T12:39:36;1.98;;;0.85;;
56429;SDS011;42332;52.136;20.666;2022-07-29T12:42:10;3.55;;;0.70;;
56429;SDS011;42332;52.136;20.666;2022-07-29T12:44:48;3.20;;;0.88;;
56429;SDS011;42332;52.136;20.666;2022-07-29T12:47:14;3.35;;;0.70;;
56429;SDS011;42332;52.136;20.666;2022-07-29T12:49:40;4.10;;;0.82;;
56429;SDS011;42332;52.136;20.666;2022-07-29T12:54:57;12.88;;;1.85;;
56429;SDS011;42332;52.136;20.666;2022-07-29T12:57:22;2.15;;;0.90;;
56429;SDS011;42332;52.136;20.666;2022-07-29T13:00:08;7.03;;;1.23;;
56429;SDS011;42332;52.136;20.666;2022-07-29T13:02:36;4.68;;;1.10;;
56429;SDS011;42332;52.136;20.666;2022-07-29T13:05:02;1.90;;;0.80;;
56429;SDS011;42332;52.136;20.666;2022-07-29T13:07:29;3.33;;;0.70;;
56429;SDS011;42332;52.136;20.666;2022-07-29T13:10:15;3.60;;;1.25;;
56429;SDS011;42332;52.136;20.666;2022-07-29T13:15:30;2.15;;;0.60;;
56429;SDS011;42332;52.136;20.666;2022-07-29T13:17:55;3.22;;;0.75;;
56429;SDS011;42332;52.136;20.666;2022-07-29T13:20:23;3.60;;;0.90;;
56429;SDS011;42332;52.136;20.666;2022-07-29T13:22:49;3.40;;;0.77;;
56429;SDS011;42332;52.136;20.666;2022-07-29T13:25:15;4.20;;;0.90;;
56429;SDS011;42332;52.136;20.666;2022-07-29T13:27:53;1.90;;;0.68;;
56429;SDS011;42332;52.136;20.666;2022-07-29T13:30:19;5.15;;;1.17;;
56429;SDS011;42332;52.136;20.666;2022-07-29T13:32:45;2.60;;;0.77;;
56429;SDS011;42332;52.136;20.666;2022-07-29T13:35:11;4.20;;;1.10;;
56429;SDS011;42332;52.136;20.666;2022-07-29T13:37:38;3.50;;;0.75;;
56429;SDS011;42332;52.136;20.666;2022-07-29T13:40:04;2.45;;;0.90;;
56429;SDS011;42332;52.136;20.666;2022-07-29T13:42:31;5.72;;;1.45;;
56429;SDS011;42332;52.136;20.666;2022-07-29T13:44:56;3.60;;;0.85;;
56429;SDS011;42332;52.136;20.666;2022-07-29T13:47:22;2.88;;;0.80;;
56429;SDS011;42332;52.136;20.666;2022-07-29T13:49:48;6.28;;;1.00;;
56429;SDS011;42332;52.136;20.666;2022-07-29T13:52:14;5.80;;;0.80;;
56429;SDS011;42332;52.136;20.666;2022-07-29T13:54:40;3.90;;;0.68;;
56429;SDS011;42332;52.136;20.666;2022-07-29T13:57:05;3.38;;;0.80;;
56429;SDS011;42332;52.136;20.666;2022-07-29T13:59:31;1.58;;;0.50;;
56429;SDS011;42332;52.136;20.666;2022-07-29T14:01:56;4.25;;;0.80;;
56429;SDS011;42332;52.136;20.666;2022-07-29T14:04:22;1.38;;;0.55;;
56429;SDS011;42332;52.136;20.666;2022-07-29T14:06:48;5.18;;;0.77;;
56429;SDS011;42332;52.136;20.666;2022-07-29T14:09:14;2.80;;;0.70;;
56429;SDS011;42332;52.136;20.666;2022-07-29T14:11:39;2.65;;;0.80;;
56429;SDS011;42332;52.136;20.666;2022-07-29T14:14:05;3.83;;;0.80;;
56429;SDS011;42332;52.136;20.666;2022-07-29T14:16:30;3.42;;;0.77;;
56429;SDS011;42332;52.136;20.666;2022-07-29T14:18:55;2.78;;;0.80;;
56429;SDS011;42332;52.136;20.666;2022-07-29T14:21:21;2.15;;;0.70;;
56429;SDS011;42332;52.136;20.666;2022-07-29T14:23:46;3.22;;;0.70;;
56429;SDS011;42332;52.136;20.666;2022-07-29T14:26:12;4.85;;;0.60;;
56429;SDS011;42332;52.136;20.666;2022-07-29T14:28:38;1.17;;;0.52;;
56429;SDS011;42332;52.136;20.666;2022-07-29T14:31:03;4.47;;;0.80;;
56429;SDS011;42332;52.136;20.666;2022-07-29T14:33:28;1.48;;;0.55;;
56429;SDS011;42332;52.136;20.666;2022-07-29T14:35:54;4.40;;;0.80;;
56429;SDS011;42332;52.136;20.666;2022-07-29T14:38:19;2.67;;;0.80;;
56429;SDS011;42332;52.136;20.666;2022-07-29T14:40:44;4.13;;;1.00;;
56429;SDS011;42332;52.136;20.666;2022-07-29T14:43:11;7.70;;;0.90;;
56429;SDS011;42332;52.136;20.666;2022-07-29T14:45:37;2.47;;;0.63;;
56429;SDS011;42332;52.136;20.666;2022-07-29T14:48:02;1.65;;;0.68;;
56429;SDS011;42332;52.136;20.666;2022-07-29T14:50:28;2.78;;;0.70;;
56429;SDS011;42332;52.136;20.666;2022-07-29T14:52:53;5.28;;;0.73;;
56429;SDS011;42332;52.136;20.666;2022-07-29T14:55:19;0.57;;;0.40;;
56429;SDS011;42332;52.136;20.666;2022-07-29T14:57:44;3.92;;;0.68;;
56429;SDS011;42332;52.136;20.666;2022-07-29T15:00:10;4.47;;;0.88;;
56429;SDS011;42332;52.136;20.666;2022-07-29T15:02:36;3.78;;;0.80;;
56429;SDS011;42332;52.136;20.666;2022-07-29T15:05:02;4.07;;;0.80;;
56429;SDS011;42332;52.136;20.666;2022-07-29T15:07:27;3.88;;;0.80;;
56429;SDS011;42332;52.136;20.666;2022-07-29T15:09:53;5.45;;;0.80;;
56429;SDS011;42332;52.136;20.666;2022-07-29T15:12:18;6.28;;;0.90;;
56429;SDS011;42332;52.136;20.666;2022-07-29T15:14:43;3.85;;;0.75;;
56429;SDS011;42332;52.136;20.666;2022-07-29T15:17:09;4.18;;;0.70;;
56429;SDS011;42332;52.136;20.666;2022-07-29T15:19:34;7.18;;;0.98;;
56429;SDS011;42332;52.136;20.666;2022-07-29T15:22:00;4.25;;;1.00;;
56429;SDS011;42332;52.136;20.666;2022-07-29T15:24:25;3.67;;;0.80;;
56429;SDS011;42332;52.136;20.666;2022-07-29T15:26:51;6.22;;;1.00;;
56429;SDS011;42332;52.136;20.666;2022-07-29T15:29:16;3.78;;;0.80;;